Time;durP1;ratioP1;P1;durP2;ratioP2;P2;SDS_P1;SDS_P2;PMS_P1;PMS_P2;Temp;Humidity;BMP_temperature;BMP_pressure;BME280_temperature;BME280_humidity;BME280_pressure;Samples;Min_cycle;Max_cycle;Signal;HPM_P1;HPM_P2
2022/05/16 00:01:48;;;;;;;12.82;4.45;;;16.90;99.50;;;;;;5018873;28;20090;-83
2022/05/16 00:04:14;;;;;;;11.15;4.60;;;16.90;99.50;;;;;;5026202;28;20152;-83
2022/05/16 00:06:39;;;;;;;13.13;5.10;;;16.80;99.70;;;;;;4999306;28;20123;-83
2022/05/16 00:09:05;;;;;;;13.85;4.28;;;16.80;99.80;;;;;;5017217;28;20051;-83
2022/05/16 00:11:32;;;;;;;10.93;4.00;;;16.70;99.70;;;;;;5032722;28;20041;-83
2022/05/16 00:13:58;;;;;;;14.00;4.57;;;16.70;99.70;;;;;;5034699;28;20041;-83
2022/05/16 00:16:23;;;;;;;12.48;4.45;;;16.70;99.60;;;;;;5033893;28;20390;-83
2022/05/16 00:18:49;;;;;;;12.55;4.93;;;16.70;99.60;;;;;;5034046;28;20045;-83
2022/05/16 00:21:16;;;;;;;12.80;4.53;;;16.70;99.50;;;;;;5032327;28;20040;-83
2022/05/16 00:23:41;;;;;;;13.00;4.43;;;16.60;99.40;;;;;;5033518;28;20123;-83
2022/05/16 00:26:07;;;;;;;11.07;3.45;;;16.60;99.50;;;;;;5031950;28;20116;-83
2022/05/16 00:28:32;;;;;;;11.88;3.95;;;16.60;99.20;;;;;;5033070;28;20071;-83
2022/05/16 00:30:58;;;;;;;12.75;4.22;;;16.50;99.60;;;;;;5033055;28;20059;-83
2022/05/16 00:33:23;;;;;;;13.18;4.45;;;16.50;99.40;;;;;;5033422;28;20063;-83
2022/05/16 00:35:49;;;;;;;12.45;5.03;;;16.50;99.30;;;;;;5034384;28;20083;-83
2022/05/16 00:38:15;;;;;;;12.50;4.53;;;16.50;99.30;;;;;;5033457;28;20049;-83
2022/05/16 00:40:40;;;;;;;13.32;4.82;;;16.50;99.10;;;;;;5032925;28;20041;-83
2022/05/16 00:43:10;;;;;;;13.60;4.97;;;16.40;98.90;;;;;;5017329;28;20072;-83
2022/05/16 00:45:36;;;;;;;12.20;4.65;;;16.40;99.00;;;;;;5016495;28;20047;-83
2022/05/16 00:48:02;;;;;;;11.95;4.70;;;16.40;99.10;;;;;;5033071;28;20044;-83
2022/05/16 00:50:30;;;;;;;11.05;3.45;;;16.40;99.00;;;;;;5033673;28;20032;-83
2022/05/16 00:52:56;;;;;;;9.88;4.20;;;16.30;98.70;;;;;;5033116;28;20524;-83
2022/05/16 00:55:30;;;;;;;14.23;4.22;;;16.30;99.10;;;;;;5034050;28;20036;-83
2022/05/16 00:57:59;;;;;;;11.85;4.25;;;16.30;98.90;;;;;;5032878;28;20044;-83
2022/05/16 01:00:29;;;;;;;13.55;4.55;;;16.30;98.90;;;;;;5016884;28;20119;-83
2022/05/16 01:05:45;;;;;;;12.50;4.70;;;16.30;98.80;;;;;;5027281;28;20037;-83
2022/05/16 01:08:14;;;;;;;13.68;3.67;;;16.20;99.20;;;;;;5016553;28;20084;-83
2022/05/16 01:10:40;;;;;;;10.32;4.00;;;16.20;98.70;;;;;;5016415;28;20453;-83
2022/05/16 01:13:06;;;;;;;13.15;4.78;;;16.10;98.90;;;;;;5032957;28;20036;-83
2022/05/16 01:15:48;;;;;;;13.18;4.13;;;16.10;98.90;;;;;;5033198;28;20124;-83
2022/05/16 01:18:17;;;;;;;10.43;4.20;;;16.20;98.40;;;;;;5032625;28;20494;-83
2022/05/16 01:21:14;;;;;;;11.57;3.80;;;16.10;98.70;;;;;;5033058;28;20087;-83
2022/05/16 01:23:49;;;;;;;10.85;4.38;;;16.10;98.40;;;;;;5016004;28;20595;-83
2022/05/16 01:26:21;;;;;;;11.18;4.55;;;16.10;98.80;;;;;;5032650;28;20045;-83
2022/05/16 01:28:47;;;;;;;13.95;4.65;;;16.00;98.80;;;;;;5031928;28;20033;-83
2022/05/16 01:31:13;;;;;;;13.70;4.45;;;16.00;98.90;;;;;;5016528;28;20033;-83
2022/05/16 01:33:39;;;;;;;13.20;4.20;;;16.00;98.90;;;;;;5033161;28;20060;-83
2022/05/16 01:36:05;;;;;;;12.25;4.47;;;16.00;99.00;;;;;;5032405;28;20087;-83
2022/05/16 01:38:31;;;;;;;11.75;4.60;;;15.90;99.20;;;;;;5032417;28;20044;-83
2022/05/16 01:41:02;;;;;;;12.88;4.35;;;15.90;99.20;;;;;;5031452;28;20029;-83
2022/05/16 01:43:38;;;;;;;12.27;4.28;;;15.90;99.10;;;;;;5015862;28;20456;-83
2022/05/16 01:46:05;;;;;;;12.63;4.25;;;15.80;99.10;;;;;;5016126;28;20402;-83
2022/05/16 01:48:31;;;;;;;11.52;3.78;;;15.80;99.30;;;;;;5030974;28;20490;-83
2022/05/16 01:51:04;;;;;;;12.60;3.85;;;15.80;99.30;;;;;;5032294;28;20045;-83
2022/05/16 01:53:30;;;;;;;;;;;15.70;99.20;;;;;;5016398;28;20393;-83
2022/05/16 01:55:56;;;;;;;13.55;4.72;;;15.60;99.30;;;;;;5015925;28;19916;-83
2022/05/16 01:58:22;;;;;;;12.60;4.22;;;15.50;99.80;;;;;;5032087;28;20124;-83
2022/05/16 02:00:48;;;;;;;11.13;4.05;;;15.60;99.70;;;;;;5031513;28;20072;-83
2022/05/16 02:03:13;;;;;;;11.55;4.03;;;15.60;99.60;;;;;;5015364;28;20080;-83
2022/05/16 02:05:41;;;;;;;11.77;3.97;;;15.50;99.60;;;;;;5015129;28;20048;-83
2022/05/16 02:08:07;;;;;;;11.35;4.90;;;15.50;99.80;;;;;;5032079;28;20037;-83
2022/05/16 02:10:34;;;;;;;11.52;4.03;;;15.50;99.80;;;;;;5015365;28;20048;-83
2022/05/16 02:13:03;;;;;;;12.82;4.07;;;15.40;99.40;;;;;;5015648;28;20033;-83
2022/05/16 02:15:31;;;;;;;11.77;4.43;;;15.40;99.90;;;;;;5032645;28;20123;-83
2022/05/16 02:17:58;;;;;;;11.48;4.50;;;15.40;99.90;;;;;;5031770;28;20045;-82
2022/05/16 02:20:24;;;;;;;11.15;3.97;;;15.40;99.90;;;;;;5015909;28;20094;-83
2022/05/16 02:25:37;;;;;;;11.65;3.80;;;15.40;99.90;;;;;;5031602;28;20041;-82
2022/05/16 02:28:06;;;;;;;12.48;4.20;;;15.30;99.80;;;;;;5032224;28;20049;-82
2022/05/16 02:30:32;;;;;;;11.02;3.90;;;15.30;99.80;;;;;;5032050;28;20041;-83
2022/05/16 02:32:58;;;;;;;12.10;4.18;;;15.30;99.90;;;;;;5015684;28;20055;-82
2022/05/16 02:35:24;;;;;;;12.10;4.82;;;15.30;99.70;;;;;;5032629;28;20056;-82
2022/05/16 02:37:50;;;;;;;11.13;4.10;;;15.30;99.60;;;;;;5031196;28;20040;-82
2022/05/16 02:40:16;;;;;;;11.63;3.97;;;15.30;99.60;;;;;;5015616;28;20079;-83
2022/05/16 02:42:42;;;;;;;12.57;4.07;;;15.30;99.60;;;;;;5015666;28;20493;-83
2022/05/16 02:45:08;;;;;;;11.23;4.00;;;15.20;99.60;;;;;;5015378;28;20048;-83
2022/05/16 02:47:35;;;;;;;12.20;3.65;;;15.20;99.50;;;;;;5031685;28;20045;-82
2022/05/16 02:50:01;;;;;;;14.20;2.97;;;15.10;99.50;;;;;;5031609;28;20124;-82
2022/05/16 02:52:27;;;;;;;10.45;3.60;;;15.10;99.30;;;;;;5015756;28;20405;-82
2022/05/16 02:54:52;;;;;;;8.70;3.00;;;15.10;99.60;;;;;;5036135;28;20051;-83
2022/05/16 02:57:18;;;;;;;12.13;3.97;;;15.00;99.40;;;;;;5018745;28;20044;-83
2022/05/16 02:59:44;;;;;;;14.55;4.15;;;15.00;99.70;;;;;;5053241;28;20047;-82
2022/05/16 03:02:11;;;;;;;10.38;4.05;;;15.00;99.60;;;;;;5035461;28;20076;-82
2022/05/16 03:04:37;;;;;;;12.00;4.35;;;15.00;99.70;;;;;;5018530;28;20073;-82
2022/05/16 03:07:04;;;;;;;10.85;3.13;;;15.00;99.60;;;;;;5018955;28;20787;-83
2022/05/16 03:09:30;;;;;;;10.73;3.90;;;14.90;99.30;;;;;;5035066;28;20055;-82
2022/05/16 03:11:56;;;;;;;10.93;3.58;;;14.90;99.90;;;;;;5035356;28;20120;-82
2022/05/16 03:14:22;;;;;;;12.38;4.43;;;14.90;99.90;;;;;;5019315;28;20557;-82
2022/05/16 03:16:48;;;;;;;11.52;4.15;;;14.90;99.90;;;;;;5035355;28;20041;-83
2022/05/16 03:19:13;;;;;;;13.90;3.38;;;14.80;99.90;;;;;;5018307;28;20057;-83
2022/05/16 03:21:39;;;;;;;9.68;3.75;;;14.80;99.80;;;;;;5034156;28;20037;-83
2022/05/16 03:24:06;;;;;;;13.02;4.60;;;14.80;99.90;;;;;;5034757;28;20099;-83
2022/05/16 03:26:32;;;;;;;10.85;3.15;;;14.80;99.90;;;;;;5035077;28;20079;-82
2022/05/16 03:28:57;;;;;;;12.45;3.90;;;14.80;99.90;;;;;;5017817;28;20065;-83
2022/05/16 03:31:23;;;;;;;9.85;2.80;;;14.70;99.90;;;;;;5018641;28;20041;-82
2022/05/16 03:33:48;;;;;;;12.23;3.20;;;14.70;99.70;;;;;;5034552;28;20051;-83
2022/05/16 03:36:14;;;;;;;11.73;2.65;;;14.70;99.90;;;;;;5035156;28;20072;-83
2022/05/16 03:41:24;;;;;;;10.52;3.63;;;14.70;99.90;;;;;;5014992;28;20049;-82
2022/05/16 03:43:51;;;;;;;13.98;2.90;;;14.70;99.90;;;;;;5019908;28;20037;-82
2022/05/16 03:46:18;;;;;;;8.50;3.72;;;14.60;99.90;;;;;;5034485;28;20037;-82
2022/05/16 03:48:43;;;;;;;10.30;3.33;;;14.60;99.90;;;;;;5034594;28;20073;-82
2022/05/16 03:51:11;;;;;;;11.98;2.85;;;14.70;99.90;;;;;;5034279;28;20069;-83
2022/05/16 03:53:46;;;;;;;10.90;3.60;;;14.60;99.90;;;;;;5018277;28;20037;-83
2022/05/16 03:56:17;;;;;;;8.93;3.47;;;14.60;99.90;;;;;;5033632;28;20124;-82
2022/05/16 03:58:43;;;;;;;12.02;4.18;;;14.60;99.90;;;;;;5034277;28;20056;-82
2022/05/16 04:01:09;;;;;;;10.13;3.80;;;14.60;99.90;;;;;;5034248;28;20041;-83
2022/05/16 04:03:35;;;;;;;11.15;3.92;;;14.70;99.90;;;;;;5017318;28;20033;-83
2022/05/16 04:06:01;;;;;;;12.07;3.97;;;14.60;99.90;;;;;;5034572;28;20029;-82
2022/05/16 04:08:28;;;;;;;10.77;3.75;;;14.70;99.90;;;;;;5033351;28;20410;-83
2022/05/16 04:10:55;;;;;;;9.98;2.78;;;14.60;99.90;;;;;;5034522;28;20580;-82
2022/05/16 04:13:20;;;;;;;8.95;2.85;;;14.60;99.90;;;;;;5033756;28;20044;-82
2022/05/16 04:15:46;;;;;;;13.35;4.03;;;14.60;99.90;;;;;;5018001;28;20415;-83
2022/05/16 04:18:11;;;;;;;11.50;3.38;;;14.60;99.90;;;;;;5033625;28;20052;-82
2022/05/16 04:20:37;;;;;;;9.68;3.30;;;14.60;99.90;;;;;;5017464;28;20048;-83
2022/05/16 04:23:02;;;;;;;14.20;3.83;;;14.60;99.90;;;;;;5033693;28;20127;-83
2022/05/16 04:25:29;;;;;;;10.32;3.28;;;14.70;99.90;;;;;;5033282;28;20037;-83
2022/05/16 04:27:55;;;;;;;10.73;2.80;;;14.70;99.90;;;;;;5033806;28;20084;-83
2022/05/16 04:30:20;;;;;;;12.93;3.67;;;14.70;99.90;;;;;;5017325;28;20064;-82
2022/05/16 04:32:46;;;;;;;11.23;3.72;;;14.70;99.90;;;;;;5034067;28;20069;-82
2022/05/16 04:35:11;;;;;;;10.63;3.25;;;14.70;99.90;;;;;;5034456;28;20045;-82
2022/05/16 04:37:37;;;;;;;11.48;3.75;;;14.70;99.90;;;;;;5033157;28;20565;-83
2022/05/16 04:40:05;;;;;;;13.90;4.00;;;14.70;99.90;;;;;;5016711;28;20098;-82
2022/05/16 04:42:46;;;;;;;10.43;3.35;;;14.70;99.90;;;;;;5032615;28;20044;-82
2022/05/16 04:45:11;;;;;;;10.80;3.80;;;14.70;99.90;;;;;;5032571;28;20521;-82
2022/05/16 04:47:37;;;;;;;10.77;3.55;;;14.70;99.90;;;;;;5032898;28;20110;-82
2022/05/16 04:50:04;;;;;;;13.05;3.83;;;14.80;99.90;;;;;;5032197;28;20090;-82
2022/05/16 04:52:30;;;;;;;10.65;3.80;;;14.80;99.90;;;;;;5032923;28;20047;-83
2022/05/16 04:54:55;;;;;;;9.77;3.88;;;14.80;99.90;;;;;;5032625;28;20128;-83
2022/05/16 04:57:21;;;;;;;10.63;3.80;;;14.80;99.90;;;;;;5033323;28;20051;-83
2022/05/16 04:59:47;;;;;;;10.98;3.47;;;14.80;99.90;;;;;;5032501;28;20445;-83
2022/05/16 05:02:14;;;;;;;10.07;3.63;;;14.90;99.90;;;;;;5015429;28;20041;-82
2022/05/16 05:04:40;;;;;;;12.27;3.47;;;14.90;99.90;;;;;;5016350;28;20136;-83
2022/05/16 05:07:05;;;;;;;9.00;3.22;;;14.90;99.90;;;;;;5030506;28;20127;-83
2022/05/16 05:09:31;;;;;;;11.30;3.65;;;14.90;99.90;;;;;;5031678;28;20033;-83
2022/05/16 05:14:42;;;;;;;11.70;3.97;;;15.00;99.90;;;;;;5031738;28;20094;-83
2022/05/16 05:17:10;;;;;;;13.15;3.65;;;15.00;99.90;;;;;;5014574;28;20044;-83
2022/05/16 05:19:40;;;;;;;11.38;3.80;;;15.00;99.90;;;;;;5031863;28;20041;-83
2022/05/16 05:22:06;;;;;;;11.13;3.63;;;15.00;99.90;;;;;;5031053;28;20044;-83
2022/05/16 05:24:32;;;;;;;11.90;3.95;;;15.00;99.90;;;;;;5032437;28;20714;-83
2022/05/16 05:26:58;;;;;;;11.27;2.90;;;15.00;99.90;;;;;;5031479;28;20041;-83
2022/05/16 05:29:24;;;;;;;13.50;4.43;;;15.00;99.90;;;;;;5031831;28;20048;-83
2022/05/16 05:31:50;;;;;;;10.13;2.95;;;15.10;99.90;;;;;;5013788;28;20037;-82
2022/05/16 05:34:16;;;;;;;11.38;3.03;;;15.20;99.90;;;;;;5031953;28;20053;-83
2022/05/16 05:36:43;;;;;;;11.02;3.72;;;15.20;99.90;;;;;;5032464;28;20468;-82
2022/05/16 05:39:10;;;;;;;12.80;4.25;;;15.20;99.90;;;;;;5031844;28;20048;-82
2022/05/16 05:41:35;;;;;;;11.90;3.92;;;15.40;99.90;;;;;;5031691;28;20128;-83
2022/05/16 05:44:01;;;;;;;11.68;3.42;;;15.40;99.90;;;;;;5032214;28;20120;-83
2022/05/16 05:46:32;;;;;;;10.52;4.10;;;15.50;99.90;;;;;;5032452;28;20041;-83
2022/05/16 05:48:58;;;;;;;10.60;3.92;;;15.60;99.90;;;;;;5032292;28;20039;-83
2022/05/16 05:51:23;;;;;;;9.20;3.10;;;15.70;99.90;;;;;;5015723;28;20052;-83
2022/05/16 05:53:49;;;;;;;12.25;3.80;;;15.80;99.90;;;;;;5031359;28;20070;-83
2022/05/16 05:56:15;;;;;;;10.68;3.75;;;15.90;99.90;;;;;;5031917;28;20076;-83
2022/05/16 05:58:42;;;;;;;9.68;3.45;;;15.90;99.90;;;;;;5033018;28;20045;-82
2022/05/16 06:01:08;;;;;;;13.25;3.65;;;16.00;99.80;;;;;;5031790;28;20053;-83
2022/05/16 06:03:34;;;;;;;12.35;3.33;;;16.00;99.50;;;;;;5031798;28;20402;-83
2022/05/16 06:06:00;;;;;;;12.43;3.67;;;16.10;99.40;;;;;;5015666;28;20171;-83
2022/05/16 06:08:26;;;;;;;14.00;3.90;;;16.10;99.10;;;;;;5015494;28;20504;-83
2022/05/16 06:10:51;;;;;;;10.90;4.00;;;16.10;99.20;;;;;;5032880;28;20044;-84
2022/05/16 06:13:18;;;;;;;11.13;3.65;;;16.20;99.20;;;;;;5015477;28;20119;-83
2022/05/16 06:15:44;;;;;;;12.77;4.00;;;16.30;99.30;;;;;;5016294;28;20045;-83
2022/05/16 06:18:09;;;;;;;10.85;3.00;;;16.30;99.30;;;;;;5031986;28;20040;-83
2022/05/16 06:20:35;;;;;;;10.73;3.40;;;16.40;99.10;;;;;;5032499;28;20028;-83
2022/05/16 06:23:01;;;;;;;12.75;3.28;;;16.40;99.80;;;;;;5015830;28;20510;-83
2022/05/16 06:25:32;;;;;;;11.55;3.70;;;16.60;99.30;;;;;;5031148;28;20461;-83
2022/05/16 06:28:14;;;;;;;12.68;3.33;;;16.70;99.40;;;;;;5016646;28;20033;-83
2022/05/16 06:30:43;;;;;;;10.07;3.63;;;16.80;98.80;;;;;;5019953;28;20119;-83
2022/05/16 06:33:09;;;;;;;12.48;3.38;;;16.90;98.20;;;;;;5019696;28;20397;-83
2022/05/16 06:35:36;;;;;;;11.68;3.83;;;17.00;97.80;;;;;;5036491;28;20045;-84
2022/05/16 06:38:13;;;;;;;13.30;3.88;;;17.10;97.10;;;;;;5035209;28;20033;-83
2022/05/16 06:40:41;;;;;;;17.20;4.28;;;17.20;97.20;;;;;;5036351;28;20041;-83
2022/05/16 06:43:08;;;;;;;9.80;3.35;;;17.30;97.20;;;;;;5035422;28;20037;-83
2022/05/16 06:45:34;;;;;;;11.55;3.70;;;17.40;96.60;;;;;;5019614;28;20048;-83
2022/05/16 06:48:01;;;;;;;12.07;4.13;;;17.40;96.30;;;;;;5035139;28;20033;-83
2022/05/16 06:50:27;;;;;;;10.88;3.70;;;17.60;96.50;;;;;;5019107;28;20128;-83
2022/05/16 06:52:53;;;;;;;11.90;3.55;;;17.70;95.50;;;;;;5019742;28;20119;-83
2022/05/16 06:55:19;;;;;;;10.13;3.85;;;17.80;95.30;;;;;;5035312;28;20045;-83
2022/05/16 06:57:45;;;;;;;11.93;3.38;;;17.90;95.30;;;;;;5036082;28;20045;-83
2022/05/16 07:00:11;;;;;;;11.57;3.40;;;17.90;95.20;;;;;;5035175;28;20077;-84
2022/05/16 07:02:38;;;;;;;10.80;3.25;;;18.00;95.50;;;;;;5035187;28;20041;-84
2022/05/16 07:05:03;;;;;;;13.93;3.83;;;18.20;94.70;;;;;;5034508;28;20051;-84
2022/05/16 07:07:29;;;;;;;10.57;3.60;;;18.20;93.80;;;;;;5018869;28;20116;-83
2022/05/16 07:09:55;;;;;;;13.38;3.88;;;18.30;94.10;;;;;;5035477;28;20033;-83
2022/05/16 07:12:20;;;;;;;11.48;3.40;;;18.40;94.30;;;;;;5034763;28;20060;-83
2022/05/16 07:14:47;;;;;;;11.63;3.63;;;18.50;93.50;;;;;;5019435;28;20033;-83
2022/05/16 07:17:13;;;;;;;14.63;3.92;;;18.60;92.90;;;;;;5035169;28;20033;-83
2022/05/16 07:19:38;;;;;;;13.30;3.20;;;18.70;93.00;;;;;;5034407;28;20178;-83
2022/05/16 07:22:15;;;;;;;10.75;3.97;;;18.80;92.90;;;;;;5031728;28;20456;-82
2022/05/16 07:24:42;;;;;;;13.88;3.80;;;18.90;92.70;;;;;;5034114;28;20125;-83
2022/05/16 07:29:53;;;;;;;12.23;3.50;;;19.10;91.50;;;;;;5033981;28;20048;-84
2022/05/16 07:32:19;;;;;;;14.85;3.63;;;19.20;91.30;;;;;;5034571;28;20036;-83
2022/05/16 07:34:45;;;;;;;11.55;3.50;;;19.30;90.70;;;;;;5018600;28;20103;-83
2022/05/16 07:37:10;;;;;;;11.95;3.50;;;19.40;91.00;;;;;;5018859;28;20429;-83
2022/05/16 07:39:36;;;;;;;12.43;3.92;;;19.50;91.00;;;;;;5034288;28;20553;-83
2022/05/16 07:42:09;;;;;;;11.85;3.30;;;19.70;89.10;;;;;;5033440;28;20052;-83
2022/05/16 07:44:36;;;;;;;10.85;3.42;;;19.80;88.30;;;;;;5034384;28;20103;-83
2022/05/16 07:47:02;;;;;;;9.38;3.40;;;19.90;89.40;;;;;;5026494;28;20604;-82
2022/05/16 07:49:27;;;;;;;10.48;3.28;;;20.00;86.80;;;;;;5032246;28;20048;-83
2022/05/16 07:51:53;;;;;;;10.30;3.42;;;20.00;85.00;;;;;;5036393;28;20052;-83
2022/05/16 07:54:19;;;;;;;10.80;3.38;;;20.10;83.80;;;;;;5037367;28;20040;-83
2022/05/16 07:56:44;;;;;;;10.48;3.53;;;20.20;84.60;;;;;;5036681;28;20068;-84
2022/05/16 07:59:10;;;;;;;11.77;3.20;;;20.30;82.50;;;;;;5029752;28;20135;-83
2022/05/16 08:01:36;;;;;;;10.85;3.38;;;20.30;83.20;;;;;;5031834;28;20036;-83
2022/05/16 08:04:06;;;;;;;12.18;3.42;;;20.50;83.10;;;;;;5014160;28;20037;-84
2022/05/16 08:06:32;;;;;;;25.05;3.88;;;20.60;81.20;;;;;;5013646;28;20391;-83
2022/05/16 08:11:42;;;;;;;10.68;3.35;;;20.70;85.10;;;;;;5032946;28;20052;-83
2022/05/16 08:14:07;;;;;;;14.73;3.65;;;20.90;83.10;;;;;;5033057;28;20041;-84
2022/05/16 08:16:34;;;;;;;10.50;3.28;;;20.90;83.20;;;;;;5033204;28;20052;-83
2022/05/16 08:19:00;;;;;;;11.30;3.20;;;21.00;79.40;;;;;;5033411;28;20044;-84
2022/05/16 08:21:25;;;;;;;12.07;3.05;;;21.10;81.00;;;;;;5032842;28;20044;-83
2022/05/16 08:23:51;;;;;;;10.05;3.35;;;21.20;80.50;;;;;;5016819;28;20120;-84
2022/05/16 08:26:17;;;;;;;9.95;3.30;;;21.20;80.00;;;;;;5032649;28;20047;-84
2022/05/16 08:28:43;;;;;;;10.38;3.03;;;21.30;79.40;;;;;;5032731;28;20032;-84
2022/05/16 08:31:09;;;;;;;10.70;3.40;;;21.50;76.90;;;;;;5033158;28;20557;-84
2022/05/16 08:33:37;;;;;;;11.65;3.28;;;21.50;75.80;;;;;;5032419;28;20128;-84
2022/05/16 08:41:50;;;;;;;11.05;3.42;;;21.80;72.90;;;;;;5026820;28;20132;-84
2022/05/16 08:44:28;;;;;;;11.18;3.65;;;22.00;73.20;;;;;;5016404;28;20507;-84
2022/05/16 08:47:15;;;;;;;9.55;3.80;;;22.10;78.00;;;;;;5032452;28;20045;-84
2022/05/16 08:49:53;;;;;;;12.70;3.35;;;22.20;71.50;;;;;;5017307;28;20045;-84
2022/05/16 08:52:27;;;;;;;11.95;3.20;;;22.30;70.80;;;;;;5016010;28;20033;-84
2022/05/16 08:55:19;;;;;;;11.52;3.30;;;22.40;72.80;;;;;;5032679;28;20055;-84
2022/05/16 08:57:50;;;;;;;13.23;3.35;;;22.50;69.70;;;;;;5017122;28;20049;-84
2022/05/16 09:00:48;;;;;;;12.73;4.00;;;22.60;70.30;;;;;;5032867;28;20505;-84
2022/05/16 09:03:23;;;;;;;16.92;3.50;;;22.60;68.20;;;;;;5032522;28;20057;-84
2022/05/16 09:06:17;;;;;;;10.63;3.40;;;22.70;67.60;;;;;;5016094;28;20037;-84
2022/05/16 09:08:56;;;;;;;12.73;3.35;;;22.80;69.50;;;;;;5015595;28;20506;-84
2022/05/16 09:11:44;;;;;;;11.20;3.35;;;22.90;70.40;;;;;;5032577;28;20037;-84
2022/05/16 09:14:49;;;;;;;9.95;3.10;;;23.00;67.70;;;;;;5032633;28;20045;-84
2022/05/16 09:17:44;;;;;;;14.23;4.05;;;23.00;64.90;;;;;;5014418;28;20102;-84
2022/05/16 09:20:30;;;;;;;9.40;2.92;;;23.10;66.40;;;;;;5016607;28;20053;-84
2022/05/16 09:23:22;;;;;;;13.52;3.85;;;23.10;68.90;;;;;;5033619;28;20140;-84
2022/05/16 09:25:51;;;;;;;;;;;23.20;66.10;;;;;;5006244;28;20061;-84
2022/05/16 09:28:37;;;;;;;11.60;3.20;;;23.10;68.30;;;;;;5013116;28;19917;-84
2022/05/16 09:31:22;;;;;;;10.02;3.08;;;23.20;64.70;;;;;;5007588;28;20037;-84
2022/05/16 09:33:55;;;;;;;16.67;3.38;;;23.30;66.90;;;;;;5032309;28;20558;-84
2022/05/16 09:36:30;;;;;;;12.23;3.20;;;23.40;63.90;;;;;;5032477;28;20123;-83
2022/05/16 09:38:56;;;;;;;10.35;3.13;;;23.50;63.20;;;;;;5032659;28;20044;-84
2022/05/16 09:41:36;;;;;;;10.65;3.38;;;23.60;63.20;;;;;;5014948;28;20037;-84
2022/05/16 09:44:22;;;;;;;12.88;4.13;;;23.70;64.10;;;;;;5025158;28;20052;-84
2022/05/16 09:46:49;;;;;;;12.20;3.50;;;23.90;63.40;;;;;;5032821;28;20087;-84
2022/05/16 09:49:27;;;;;;;12.35;3.45;;;24.00;62.20;;;;;;5031272;28;20063;-84
2022/05/16 09:51:55;;;;;;;13.80;3.40;;;24.10;62.60;;;;;;5032288;28;20124;-84
2022/05/16 09:54:37;;;;;;;9.82;3.25;;;24.10;60.70;;;;;;5027773;28;20107;-84
2022/05/16 09:57:12;;;;;;;9.57;3.30;;;24.20;59.70;;;;;;5032239;28;20072;-84
2022/05/16 09:59:50;;;;;;;11.55;3.58;;;24.30;59.90;;;;;;5031764;28;20095;-84
2022/05/16 10:02:22;;;;;;;13.05;3.85;;;24.30;60.00;;;;;;5033108;28;20460;-84
2022/05/16 10:04:52;;;;;;;10.90;3.43;;;24.40;60.40;;;;;;5035507;28;20045;-84
2022/05/16 10:07:26;;;;;;;10.40;3.25;;;24.50;61.60;;;;;;5034143;28;20094;-84
2022/05/16 10:09:53;;;;;;;9.05;3.13;;;24.70;60.30;;;;;;5035404;28;20040;-84
2022/05/16 10:12:22;;;;;;;9.60;3.40;;;24.80;59.70;;;;;;5034283;28;20060;-84
2022/05/16 10:14:48;;;;;;;10.07;3.20;;;25.00;58.60;;;;;;5018887;28;20140;-84
2022/05/16 10:17:24;;;;;;;11.98;3.67;;;25.10;59.20;;;;;;5036212;28;20132;-84
2022/05/16 10:20:00;;;;;;;10.40;3.25;;;25.10;57.80;;;;;;5018079;28;20041;-84
2022/05/16 10:22:27;;;;;;;9.10;3.03;;;25.20;57.10;;;;;;5036485;28;20103;-84
2022/05/16 10:24:55;;;;;;;12.82;3.75;;;25.30;56.60;;;;;;5035668;28;20387;-85
2022/05/16 10:27:32;;;;;;;10.57;3.60;;;25.40;55.30;;;;;;5016517;28;20037;-84
2022/05/16 10:30:20;;;;;;;12.15;3.63;;;25.40;55.30;;;;;;5016763;28;20038;-84
2022/05/16 10:35:39;;;;;;;10.38;3.20;;;25.50;56.20;;;;;;5036489;28;20447;-84
2022/05/16 10:38:11;;;;;;;10.18;3.35;;;25.50;55.00;;;;;;5019129;28;20041;-84
2022/05/16 10:40:42;;;;;;;10.48;3.08;;;25.50;56.40;;;;;;5036773;28;20444;-84
2022/05/16 10:43:39;;;;;;;12.23;3.60;;;25.40;55.20;;;;;;5035717;28;20045;-83
2022/05/16 10:46:18;;;;;;;10.98;3.58;;;25.30;56.00;;;;;;5053795;28;20079;-83
2022/05/16 10:48:59;;;;;;;10.80;3.53;;;25.20;55.60;;;;;;5035504;28;20041;-84
2022/05/16 10:51:41;;;;;;;10.40;3.10;;;25.20;56.00;;;;;;5034596;28;20040;-84
2022/05/16 10:54:26;;;;;;;11.15;3.55;;;25.10;58.00;;;;;;5035134;28;20040;-84
2022/05/16 10:57:10;;;;;;;10.05;3.80;;;25.00;57.80;;;;;;5035258;28;20482;-84
2022/05/16 11:00:20;;;;;;;11.25;4.15;;;24.90;57.70;;;;;;5019312;28;20044;-84
2022/05/16 11:02:52;;;;;;;9.85;3.45;;;24.80;58.70;;;;;;4974943;28;20082;-84
2022/05/16 11:05:39;;;;;;;10.20;3.50;;;24.80;58.30;;;;;;4975276;28;20120;-84
2022/05/16 11:08:16;;;;;;;14.75;3.92;;;24.70;59.20;;;;;;4974054;28;20046;-83
2022/05/16 11:11:12;;;;;;;12.73;3.67;;;24.70;60.00;;;;;;4974376;28;20655;-84
2022/05/16 11:14:14;;;;;;;9.75;3.15;;;24.70;59.40;;;;;;4971535;28;20065;-83
2022/05/16 11:16:40;;;;;;;11.80;3.55;;;24.50;61.70;;;;;;4975648;28;20073;-84
2022/05/16 11:19:23;;;;;;;11.55;3.53;;;24.40;62.50;;;;;;4975270;28;20086;-83
2022/05/16 11:22:00;;;;;;;12.27;3.60;;;24.50;64.90;;;;;;4991384;28;20057;-84
2022/05/16 11:24:44;;;;;;;13.90;4.70;;;24.40;68.40;;;;;;4975250;28;20081;-84
2022/05/16 11:27:30;;;;;;;12.02;4.40;;;24.40;71.80;;;;;;4973955;28;20042;-84
2022/05/16 11:29:56;;;;;;;10.63;3.90;;;24.30;72.90;;;;;;4972744;28;20038;-84
2022/05/16 11:32:33;;;;;;;10.73;3.95;;;24.30;76.00;;;;;;4972802;28;20179;-84
2022/05/16 11:35:11;;;;;;;11.00;3.53;;;24.20;73.60;;;;;;4979665;28;20466;-84
2022/05/16 11:37:51;;;;;;;11.52;4.30;;;24.10;77.50;;;;;;4999304;28;20044;-85
2022/05/16 11:40:33;;;;;;;12.13;4.60;;;24.10;79.40;;;;;;5018229;28;20114;-84
2022/05/16 11:43:18;;;;;;;13.80;4.60;;;24.00;85.00;;;;;;5018049;28;20498;-85
2022/05/16 11:46:12;;;;;;;12.40;4.55;;;23.90;90.10;;;;;;5034090;28;20516;-84
2022/05/16 11:48:49;;;;;;;11.25;4.00;;;23.90;91.40;;;;;;5017793;28;20033;-84
2022/05/16 11:51:52;;;;;;;9.68;4.38;;;23.80;90.50;;;;;;5033959;28;20052;-84
2022/05/16 11:54:23;;;;;;;13.18;4.60;;;23.80;90.10;;;;;;5017236;28;20416;-84
2022/05/16 12:02:28;;;;;;;10.00;4.50;;;23.70;90.40;;;;;;5033697;28;20040;-84
2022/05/16 12:05:00;;;;;;;9.50;3.45;;;23.60;92.70;;;;;;5031850;28;20631;-84
2022/05/16 12:07:31;;;;;;;10.90;4.28;;;23.70;90.90;;;;;;5017069;28;20056;-84
2022/05/16 12:10:01;;;;;;;11.68;3.45;;;23.70;87.80;;;;;;5032737;28;20120;-84
2022/05/16 12:12:37;;;;;;;11.65;3.47;;;23.80;90.90;;;;;;5032488;28;20029;-84
2022/05/16 12:15:24;;;;;;;10.88;3.60;;;23.90;81.70;;;;;;5015984;28;20037;-85
2022/05/16 12:18:03;;;;;;;11.35;3.70;;;24.00;79.90;;;;;;5016430;28;20490;-85
2022/05/16 12:20:43;;;;;;;10.70;3.42;;;24.10;81.00;;;;;;5033160;28;20765;-85
2022/05/16 12:23:11;;;;;;;12.10;3.67;;;24.20;77.10;;;;;;5033785;28;20051;-85
2022/05/16 12:25:38;;;;;;;13.18;4.03;;;24.30;76.20;;;;;;5031957;28;20064;-85
2022/05/16 12:28:13;;;;;;;9.38;3.40;;;24.30;80.80;;;;;;5032642;28;20466;-85
2022/05/16 12:30:44;;;;;;;8.90;3.05;;;24.30;76.50;;;;;;5033209;28;20044;-84
2022/05/16 12:33:45;;;;;;;9.10;3.45;;;24.30;75.50;;;;;;5032450;28;20095;-85
2022/05/16 12:36:19;;;;;;;10.60;3.17;;;24.30;83.70;;;;;;4973096;28;20042;-84
2022/05/16 12:38:49;;;;;;;11.10;3.55;;;24.30;85.70;;;;;;4972002;28;20128;-84
2022/05/16 12:41:47;;;;;;;9.38;3.60;;;24.40;79.90;;;;;;4972722;28;20042;-85
2022/05/16 12:44:34;;;;;;;9.38;3.30;;;24.40;79.00;;;;;;4971960;28;20057;-85
2022/05/16 12:47:27;;;;;;;8.93;3.05;;;24.40;80.20;;;;;;4972746;28;20038;-85
2022/05/16 12:50:29;;;;;;;9.50;3.15;;;24.40;78.60;;;;;;4972353;28;20450;-85
2022/05/16 12:53:18;;;;;;;10.18;3.42;;;24.40;80.60;;;;;;4956198;28;20110;-85
2022/05/16 12:56:20;;;;;;;10.77;3.00;;;24.40;76.80;;;;;;4976878;28;20526;-85
2022/05/16 12:58:56;;;;;;;13.53;3.60;;;24.50;75.30;;;;;;4989158;28;20050;-85
2022/05/16 13:01:41;;;;;;;9.50;3.70;;;24.50;79.30;;;;;;4979424;28;20578;-84
2022/05/16 13:04:41;;;;;;;14.02;4.20;;;24.60;80.00;;;;;;4972970;28;20050;-85
2022/05/16 13:07:19;;;;;;;10.27;3.10;;;24.60;82.50;;;;;;4972405;28;20037;-84
2022/05/16 13:09:49;;;;;;;11.52;3.35;;;24.60;86.70;;;;;;4988345;28;20049;-85
2022/05/16 13:12:35;;;;;;;8.95;3.65;;;24.60;88.00;;;;;;5032110;28;20083;-84
2022/05/16 13:15:16;;;;;;;10.23;3.15;;;24.60;87.60;;;;;;5031373;28;20045;-84
2022/05/16 13:17:49;;;;;;;10.10;3.00;;;24.60;88.60;;;;;;5031185;28;20498;-84
2022/05/16 13:20:21;;;;;;;8.25;3.38;;;24.70;82.70;;;;;;5012354;28;20399;-84
2022/05/16 13:22:48;;;;;;;10.00;3.72;;;24.70;90.90;;;;;;5031358;28;20040;-84
2022/05/16 13:25:14;;;;;;;9.27;3.22;;;24.70;90.10;;;;;;5032333;28;20078;-84
2022/05/16 13:30:26;;;;;;;11.43;3.92;;;24.70;81.50;;;;;;5026333;28;20045;-84
2022/05/16 13:32:53;;;;;;;10.38;3.83;;;24.70;88.20;;;;;;5015802;28;20033;-85